Time;durP1;ratioP1;P1;durP2;ratioP2;P2;SDS_P1;SDS_P2;PMS_P1;PMS_P2;Temp;Humidity;BMP_temperature;BMP_pressure;BME280_temperature;BME280_humidity;BME280_pressure;Samples;Min_cycle;Max_cycle;Signal;HPM_P1;HPM_P2
2022/04/09 00:02:10;;;;;;;3.42;2.50;;;;;;;;;;5051570;28;20049;-72
2022/04/09 00:04:37;;;;;;;3.92;2.67;;;;;;;;;;5037254;28;20132;-72
2022/04/09 00:07:03;;;;;;;2.67;2.47;;;;;;;;;;5053116;28;20080;-73
2022/04/09 00:09:30;;;;;;;2.35;2.20;;;;;;;;;;5052851;28;20095;-73
2022/04/09 00:11:56;;;;;;;2.72;2.53;;;;;;;;;;5051602;28;20080;-72
2022/04/09 00:14:24;;;;;;;4.65;2.90;;;;;;;;;;5053010;28;20088;-72
2022/04/09 00:16:51;;;;;;;2.50;2.30;;;;;;;;;;5052680;28;20079;-72
2022/04/09 00:19:17;;;;;;;2.50;2.30;;;;;;;;;;5052599;28;20052;-72
2022/04/09 00:21:46;;;;;;;2.78;2.38;;;;;;;;;;5052622;28;20465;-72
2022/04/09 00:24:13;;;;;;;2.50;2.30;;;;;;;;;;5051412;28;20401;-73
2022/04/09 00:26:40;;;;;;;2.92;2.22;;;;;;;;;;5052524;28;20087;-72
2022/04/09 00:29:06;;;;;;;2.85;2.25;;;;;;;;;;5051207;28;20119;-72
2022/04/09 00:31:33;;;;;;;2.38;2.17;;;;;;;;;;5050381;28;20052;-72
2022/04/09 00:34:00;;;;;;;2.35;2.15;;;;;;;;;;5052583;28;20051;-72
2022/04/09 00:36:26;;;;;;;3.38;2.13;;;;;;;;;;5052638;28;20440;-72
2022/04/09 00:38:53;;;;;;;2.22;2.00;;;;;;;;;;5052235;28;20095;-73
2022/04/09 00:41:19;;;;;;;3.35;2.38;;;;;;;;;;5052136;28;20081;-73
2022/04/09 00:43:45;;;;;;;3.10;2.40;;;;;;;;;;5052127;28;20509;-72
2022/04/09 00:46:13;;;;;;;2.50;2.28;;;;;;;;;;5052360;28;20076;-73
2022/04/09 00:48:39;;;;;;;3.78;2.13;;;;;;;;;;5052431;28;20053;-72
2022/04/09 00:51:06;;;;;;;2.17;1.98;;;;;;;;;;5052326;28;20049;-72
2022/04/09 00:53:36;;;;;;;2.97;2.30;;;;;;;;;;5052038;28;20558;-72
2022/04/09 00:56:20;;;;;;;2.95;2.40;;;;;;;;;;5052143;28;20083;-72
2022/04/09 00:58:56;;;;;;;4.25;2.17;;;;;;;;;;5052292;28;20134;-73
2022/04/09 01:01:24;;;;;;;4.20;2.55;;;;;;;;;;5052018;28;20126;-72
2022/04/09 01:03:51;;;;;;;3.20;2.67;;;;;;;;;;5052126;28;20049;-72
2022/04/09 01:06:18;;;;;;;5.90;3.53;;;;;;;;;;5051021;28;20072;-72
2022/04/09 01:08:44;;;;;;;3.90;2.53;;;;;;;;;;5051723;28;20087;-72
2022/04/09 01:11:11;;;;;;;3.33;2.50;;;;;;;;;;5052117;28;20080;-72
2022/04/09 01:13:39;;;;;;;3.37;2.23;;;;;;;;;;5051820;28;20647;-72
2022/04/09 01:16:05;;;;;;;3.00;2.60;;;;;;;;;;5051685;28;20539;-72
2022/04/09 01:18:33;;;;;;;3.55;2.60;;;;;;;;;;5051860;28;20124;-72
2022/04/09 01:21:02;;;;;;;3.70;2.20;;;;;;;;;;5051936;28;20079;-72
2022/04/09 01:23:29;;;;;;;2.38;2.17;;;;;;;;;;5051766;28;20096;-72
2022/04/09 01:25:56;;;;;;;2.42;2.00;;;;;;;;;;5051800;28;20085;-72
2022/04/09 01:28:22;;;;;;;2.75;2.20;;;;;;;;;;5051503;28;20049;-72
2022/04/09 01:30:49;;;;;;;2.38;2.17;;;;;;;;;;5051422;28;20090;-72
2022/04/09 01:33:19;;;;;;;2.58;2.35;;;;;;;;;;5051828;28;20041;-72
2022/04/09 01:35:46;;;;;;;2.80;2.17;;;;;;;;;;5050081;28;20045;-72
2022/04/09 01:38:13;;;;;;;3.08;2.50;;;;;;;;;;5051674;28;20104;-72
2022/04/09 01:40:40;;;;;;;5.07;2.40;;;;;;;;;;5050105;28;20080;-72
2022/04/09 01:43:06;;;;;;;5.60;2.55;;;;;;;;;;5045322;28;20045;-72
2022/04/09 01:45:33;;;;;;;3.65;1.90;;;;;;;;;;5050546;28;20076;-71
2022/04/09 01:47:59;;;;;;;2.40;2.20;;;;;;;;;;5055815;28;20088;-72
2022/04/09 01:50:26;;;;;;;3.42;2.55;;;;;;;;;;5055467;28;20472;-72
2022/04/09 01:52:53;;;;;;;2.88;1.95;;;;;;;;;;5055304;28;20053;-72
2022/04/09 01:55:20;;;;;;;3.65;1.90;;;;;;;;;;5055397;28;20572;-72
2022/04/09 01:57:47;;;;;;;3.03;1.67;;;;;;;;;;5055355;28;20408;-72
2022/04/09 02:00:14;;;;;;;2.20;1.80;;;;;;;;;;5055420;28;20087;-71
2022/04/09 02:02:41;;;;;;;3.13;1.90;;;;;;;;;;5055369;28;20049;-72
2022/04/09 02:05:08;;;;;;;2.55;1.63;;;;;;;;;;5055276;28;20048;-71
2022/04/09 02:07:37;;;;;;;1.92;1.75;;;;;;;;;;5055432;28;20040;-72
2022/04/09 02:10:04;;;;;;;1.75;1.40;;;;;;;;;;5053886;28;20080;-72
2022/04/09 02:12:31;;;;;;;3.97;2.00;;;;;;;;;;5055390;28;20049;-72
2022/04/09 02:15:00;;;;;;;2.10;1.20;;;;;;;;;;5055334;28;20289;-72
2022/04/09 02:17:26;;;;;;;1.80;1.30;;;;;;;;;;5055328;28;20052;-71
2022/04/09 02:19:53;;;;;;;2.92;1.77;;;;;;;;;;5054805;28;20489;-72
2022/04/09 02:22:20;;;;;;;2.33;1.80;;;;;;;;;;5055178;28;20077;-72
2022/04/09 02:24:49;;;;;;;2.38;1.83;;;;;;;;;;5054888;28;20472;-72
2022/04/09 02:27:16;;;;;;;2.67;1.63;;;;;;;;;;5055089;28;20128;-72
2022/04/09 02:29:42;;;;;;;2.85;1.95;;;;;;;;;;5053572;28;20512;-71
2022/04/09 02:32:08;;;;;;;1.90;1.60;;;;;;;;;;5054818;28;20080;-71
2022/04/09 02:34:35;;;;;;;2.83;1.90;;;;;;;;;;5054895;28;20126;-72
2022/04/09 02:37:01;;;;;;;3.60;2.10;;;;;;;;;;5053632;28;20081;-72
2022/04/09 02:39:28;;;;;;;3.05;1.67;;;;;;;;;;5053561;28;20062;-71
2022/04/09 02:41:54;;;;;;;3.33;1.67;;;;;;;;;;5054278;28;22020;-71
2022/04/09 02:44:21;;;;;;;3.30;1.67;;;;;;;;;;5054548;28;20084;-71
2022/04/09 02:46:47;;;;;;;3.65;1.75;;;;;;;;;;5054732;28;20488;-72
2022/04/09 02:49:14;;;;;;;1.80;1.58;;;;;;;;;;5054883;28;20108;-72
2022/04/09 02:51:41;;;;;;;3.28;2.17;;;;;;;;;;5054254;28;20084;-72
2022/04/09 02:54:09;;;;;;;1.60;1.50;;;;;;;;;;5053927;28;20045;-71
2022/04/09 02:56:35;;;;;;;;;;;;;;;;;;5055300;28;20095;-72
2022/04/09 02:59:01;;;;;;;1.52;1.42;;;;;;;;;;5054127;28;19920;-72
2022/04/09 03:01:29;;;;;;;2.83;1.40;;;;;;;;;;5054436;28;20044;-72
2022/04/09 03:03:55;;;;;;;3.13;1.40;;;;;;;;;;5053120;28;20124;-72
2022/04/09 03:06:21;;;;;;;4.78;1.73;;;;;;;;;;5054028;28;20076;-72
2022/04/09 03:08:48;;;;;;;2.15;1.50;;;;;;;;;;5054003;28;20060;-72
2022/04/09 03:11:14;;;;;;;2.55;1.70;;;;;;;;;;5054272;28;20134;-72
2022/04/09 03:13:41;;;;;;;2.78;1.60;;;;;;;;;;5053898;28;20052;-72
2022/04/09 03:16:07;;;;;;;3.33;1.60;;;;;;;;;;5054066;28;20091;-72
2022/04/09 03:18:34;;;;;;;2.50;1.80;;;;;;;;;;5053775;28;20049;-72
2022/04/09 03:21:00;;;;;;;2.40;1.67;;;;;;;;;;5047475;28;20049;-72
2022/04/09 03:23:26;;;;;;;1.35;1.25;;;;;;;;;;5053861;28;20451;-72
2022/04/09 03:25:53;;;;;;;3.35;1.63;;;;;;;;;;5053617;28;20085;-72
2022/04/09 03:28:19;;;;;;;3.47;1.90;;;;;;;;;;5053904;28;20124;-72
2022/04/09 03:30:46;;;;;;;3.05;1.70;;;;;;;;;;5052601;28;20076;-72
2022/04/09 03:33:12;;;;;;;2.92;1.55;;;;;;;;;;5053801;28;20055;-72
2022/04/09 03:35:39;;;;;;;1.70;1.48;;;;;;;;;;5053780;28;20132;-72
2022/04/09 03:38:09;;;;;;;5.38;1.90;;;;;;;;;;5053402;28;20512;-72
2022/04/09 03:40:35;;;;;;;3.72;1.77;;;;;;;;;;5053450;28;20064;-72
2022/04/09 03:43:02;;;;;;;3.03;2.05;;;;;;;;;;5053494;28;20084;-72
2022/04/09 03:45:28;;;;;;;3.95;2.33;;;;;;;;;;5053649;28;20420;-72
2022/04/09 03:47:55;;;;;;;2.35;2.15;;;;;;;;;;5053304;28;20076;-72
2022/04/09 03:50:21;;;;;;;2.83;1.85;;;;;;;;;;5052325;28;20091;-72
2022/04/09 03:52:50;;;;;;;5.13;2.05;;;;;;;;;;5053044;28;20451;-72
2022/04/09 03:55:22;;;;;;;3.70;2.13;;;;;;;;;;5053381;28;20053;-72
2022/04/09 03:57:49;;;;;;;2.53;1.85;;;;;;;;;;5053290;28;20093;-71
2022/04/09 04:00:15;;;;;;;3.20;1.98;;;;;;;;;;5053295;28;20150;-71
2022/04/09 04:02:42;;;;;;;5.43;2.50;;;;;;;;;;5053137;28;20092;-72
2022/04/09 04:05:08;;;;;;;2.28;1.90;;;;;;;;;;5053202;28;20053;-72
2022/04/09 04:07:35;;;;;;;3.10;1.70;;;;;;;;;;5053263;28;20050;-73
2022/04/09 04:10:05;;;;;;;2.60;2.00;;;;;;;;;;5053092;28;20041;-73
2022/04/09 04:12:31;;;;;;;3.88;2.30;;;;;;;;;;5052804;28;20098;-72
2022/04/09 04:14:58;;;;;;;2.10;1.77;;;;;;;;;;5052918;28;20638;-72
2022/04/09 04:17:24;;;;;;;2.78;1.60;;;;;;;;;;5051487;28;20071;-73
2022/04/09 04:19:51;;;;;;;2.45;1.60;;;;;;;;;;5052546;28;20091;-73
2022/04/09 04:22:18;;;;;;;1.63;1.52;;;;;;;;;;5051594;28;20048;-72
2022/04/09 04:24:45;;;;;;;4.30;2.10;;;;;;;;;;5051601;28;20127;-72
2022/04/09 04:27:11;;;;;;;2.30;1.73;;;;;;;;;;5052868;28;20080;-72
2022/04/09 04:29:37;;;;;;;2.60;1.63;;;;;;;;;;5052432;28;20087;-72
2022/04/09 04:32:04;;;;;;;2.40;1.90;;;;;;;;;;5052709;28;20068;-72
2022/04/09 04:34:30;;;;;;;2.95;1.90;;;;;;;;;;5051508;28;20084;-72
2022/04/09 04:36:57;;;;;;;2.22;1.48;;;;;;;;;;5052232;28;20604;-72
2022/04/09 04:39:23;;;;;;;2.42;1.40;;;;;;;;;;5052338;28;20076;-72
2022/04/09 04:41:49;;;;;;;3.40;2.08;;;;;;;;;;5052078;28;20095;-72
2022/04/09 04:44:16;;;;;;;7.65;2.00;;;;;;;;;;5051095;28;20068;-72
2022/04/09 04:46:43;;;;;;;3.78;1.65;;;;;;;;;;5052303;28;20088;-72
2022/04/09 04:49:09;;;;;;;4.35;1.77;;;;;;;;;;5051001;28;20076;-72
2022/04/09 04:51:36;;;;;;;2.58;1.60;;;;;;;;;;5052083;28;20080;-72
2022/04/09 04:54:03;;;;;;;2.70;1.80;;;;;;;;;;5051910;28;20111;-72
2022/04/09 04:56:30;;;;;;;2.47;1.58;;;;;;;;;;5052401;28;20462;-72
2022/04/09 04:58:56;;;;;;;4.55;1.58;;;;;;;;;;5052092;28;20123;-72
2022/04/09 05:01:23;;;;;;;4.10;2.03;;;;;;;;;;5052266;28;20083;-71
2022/04/09 05:03:50;;;;;;;4.28;1.70;;;;;;;;;;5052153;28;20057;-71
2022/04/09 05:06:16;;;;;;;2.13;1.35;;;;;;;;;;5050598;28;20048;-71
2022/04/09 05:08:43;;;;;;;1.67;1.55;;;;;;;;;;5051825;28;20080;-71
2022/04/09 05:11:09;;;;;;;2.03;1.90;;;;;;;;;;5052009;28;20076;-71
2022/04/09 05:13:35;;;;;;;2.85;1.70;;;;;;;;;;5052022;28;20095;-71
2022/04/09 05:16:02;;;;;;;4.35;1.92;;;;;;;;;;5051288;28;20071;-71
2022/04/09 05:18:28;;;;;;;5.13;1.70;;;;;;;;;;5051712;28;20084;-71
2022/04/09 05:20:55;;;;;;;3.38;1.85;;;;;;;;;;5051556;28;20750;-72
2022/04/09 05:23:21;;;;;;;3.13;1.75;;;;;;;;;;5051837;28;20081;-71
2022/04/09 05:25:48;;;;;;;4.82;2.15;;;;;;;;;;5051548;28;20049;-71
2022/04/09 05:28:14;;;;;;;3.55;2.25;;;;;;;;;;5051573;28;20076;-73
2022/04/09 05:30:42;;;;;;;;;;;;;;;;;;5052172;28;20091;-72
2022/04/09 05:33:09;;;;;;;2.70;1.55;;;;;;;;;;5051538;28;20113;-72
2022/04/09 05:35:35;;;;;;;4.57;1.92;;;;;;;;;;5051722;28;20049;-72
2022/04/09 05:38:03;;;;;;;5.95;1.35;;;;;;;;;;5051728;28;20472;-71
2022/04/09 05:40:29;;;;;;;3.83;1.30;;;;;;;;;;5049923;28;20072;-72
2022/04/09 05:42:56;;;;;;;6.60;1.45;;;;;;;;;;5051579;28;20136;-71
2022/04/09 05:45:23;;;;;;;5.03;1.00;;;;;;;;;;5051338;28;20503;-73
2022/04/09 05:47:49;;;;;;;4.70;0.98;;;;;;;;;;5050499;28;20461;-72
2022/04/09 05:50:17;;;;;;;4.25;1.20;;;;;;;;;;5051620;28;20077;-73
2022/04/09 05:52:43;;;;;;;;;;;;;;;;;;5050472;28;20493;-73
2022/04/09 05:55:10;;;;;;;1.80;0.93;;;;;;;;;;5051522;28;19924;-72
2022/04/09 05:57:37;;;;;;;3.60;0.82;;;;;;;;;;5050275;28;20106;-70
2022/04/09 06:00:07;;;;;;;5.05;1.30;;;;;;;;;;5051241;28;20501;-71
2022/04/09 06:02:35;;;;;;;2.13;1.15;;;;;;;;;;5049830;28;20090;-72
2022/04/09 06:05:03;;;;;;;5.57;1.42;;;;;;;;;;5050314;28;20052;-72
2022/04/09 06:07:30;;;;;;;5.35;1.35;;;;;;;;;;5051323;28;20077;-71
2022/04/09 06:09:57;;;;;;;8.05;1.73;;;;;;;;;;5051397;28;20094;-70
2022/04/09 06:12:23;;;;;;;3.05;1.33;;;;;;;;;;5051568;28;20049;-72
2022/04/09 06:14:50;;;;;;;4.55;1.20;;;;;;;;;;5051081;28;20076;-72
2022/04/09 06:17:16;;;;;;;3.88;1.40;;;;;;;;;;5051050;28;20056;-70
2022/04/09 06:19:43;;;;;;;7.55;1.33;;;;;;;;;;5051023;28;20131;-71
2022/04/09 06:22:10;;;;;;;5.90;1.38;;;;;;;;;;5051334;28;20091;-71
2022/04/09 06:24:36;;;;;;;4.60;1.50;;;;;;;;;;5050869;28;20072;-75
2022/04/09 06:27:02;;;;;;;4.95;1.52;;;;;;;;;;5050028;28;20090;-72
2022/04/09 06:29:29;;;;;;;5.72;1.33;;;;;;;;;;5052883;28;20088;-72
2022/04/09 06:31:55;;;;;;;4.25;1.30;;;;;;;;;;5054905;28;20477;-72
2022/04/09 06:34:22;;;;;;;6.25;1.65;;;;;;;;;;5054869;28;20427;-71
2022/04/09 06:36:49;;;;;;;4.45;1.45;;;;;;;;;;5044249;28;20061;-73
2022/04/09 06:39:18;;;;;;;5.85;1.88;;;;;;;;;;5050938;28;20080;-72
2022/04/09 06:41:46;;;;;;;5.60;1.80;;;;;;;;;;5054476;28;20110;-71
2022/04/09 06:44:13;;;;;;;6.47;2.17;;;;;;;;;;5052541;28;20060;-71
2022/04/09 06:46:43;;;;;;;4.38;1.67;;;;;;;;;;5034433;28;20050;-72
2022/04/09 06:49:12;;;;;;;3.88;1.35;;;;;;;;;;5034410;28;20053;-71
2022/04/09 06:51:39;;;;;;;5.80;1.80;;;;;;;;;;5033455;28;20084;-72
2022/04/09 06:54:06;;;;;;;5.15;2.03;;;;;;;;;;5033743;28;20045;-76
2022/04/09 06:56:32;;;;;;;7.85;1.55;;;;;;;;;;5033974;28;20049;-72
2022/04/09 06:59:00;;;;;;;8.68;1.77;;;;;;;;;;5033899;28;20088;-72
2022/04/09 07:01:26;;;;;;;3.75;1.30;;;;;;;;;;5034427;28;20111;-71
2022/04/09 07:03:53;;;;;;;7.78;2.08;;;;;;;;;;5046893;28;20053;-72
2022/04/09 07:06:21;;;;;;;7.28;1.45;;;;;;;;;;5045086;28;20049;-71
2022/04/09 07:08:47;;;;;;;6.57;2.00;;;;;;;;;;5034004;28;20053;-72
2022/04/09 07:11:14;;;;;;;6.88;1.88;;;;;;;;;;5049852;28;20122;-72
2022/04/09 07:13:40;;;;;;;4.95;1.95;;;;;;;;;;5054223;28;20049;-70
2022/04/09 07:16:07;;;;;;;6.05;1.70;;;;;;;;;;5054112;28;20053;-71
2022/04/09 07:18:34;;;;;;;;;;;;;;;;;;5054648;28;20048;-70
2022/04/09 07:21:01;;;;;;;6.18;1.45;;;;;;;;;;5053452;28;19971;-71
2022/04/09 07:23:28;;;;;;;6.30;2.07;;;;;;;;;;5033846;28;20046;-74
2022/04/09 07:25:55;;;;;;;8.05;2.20;;;;;;;;;;5035244;28;20524;-72
2022/04/09 07:28:21;;;;;;;7.82;1.80;;;;;;;;;;5052733;28;20076;-74
2022/04/09 07:30:47;;;;;;;5.43;2.13;;;;;;;;;;5039732;28;20540;-73
2022/04/09 07:33:14;;;;;;;9.80;2.38;;;;;;;;;;5053459;28;20080;-72
2022/04/09 07:35:40;;;;;;;3.63;1.50;;;;;;;;;;5041523;28;20505;-75
2022/04/09 07:38:07;;;;;;;4.45;1.50;;;;;;;;;;5051069;28;20091;-71
2022/04/09 07:40:36;;;;;;;5.85;1.83;;;;;;;;;;5048940;28;20061;-73
2022/04/09 07:43:02;;;;;;;4.00;1.40;;;;;;;;;;5026605;28;20057;-72
2022/04/09 07:45:29;;;;;;;4.05;1.52;;;;;;;;;;5046906;28;20106;-73
2022/04/09 07:47:56;;;;;;;4.68;1.33;;;;;;;;;;5048792;28;20076;-71
2022/04/09 07:50:23;;;;;;;5.65;1.20;;;;;;;;;;5042083;28;20100;-73
2022/04/09 07:52:50;;;;;;;3.10;1.10;;;;;;;;;;5051818;28;20087;-70
2022/04/09 07:55:16;;;;;;;4.03;0.93;;;;;;;;;;5051732;28;20135;-70
2022/04/09 07:57:44;;;;;;;2.90;0.98;;;;;;;;;;5053051;28;20053;-70
2022/04/09 08:00:10;;;;;;;4.80;1.15;;;;;;;;;;5053418;28;20531;-70
2022/04/09 08:02:37;;;;;;;7.40;1.33;;;;;;;;;;5053267;28;20076;-71
2022/04/09 08:05:04;;;;;;;3.78;1.17;;;;;;;;;;5052896;28;20071;-71
2022/04/09 08:07:30;;;;;;;6.65;1.48;;;;;;;;;;5051984;28;20087;-69
2022/04/09 08:09:57;;;;;;;4.25;1.08;;;;;;;;;;5053087;28;20076;-69
2022/04/09 08:12:23;;;;;;;4.50;0.98;;;;;;;;;;5053129;28;20444;-71
2022/04/09 08:14:49;;;;;;;2.08;0.80;;;;;;;;;;5052669;28;20091;-70
2022/04/09 08:17:20;;;;;;;5.15;0.80;;;;;;;;;;5053074;28;20136;-71
2022/04/09 08:19:47;;;;;;;2.38;0.77;;;;;;;;;;5052650;28;20064;-70
2022/04/09 08:22:14;;;;;;;4.32;0.77;;;;;;;;;;5032669;28;20077;-71
2022/04/09 08:24:42;;;;;;;3.28;0.80;;;;;;;;;;5044275;28;20420;-70
2022/04/09 08:27:11;;;;;;;2.90;0.80;;;;;;;;;;5036563;28;20075;-71
2022/04/09 08:29:37;;;;;;;4.60;0.75;;;;;;;;;;5051520;28;20103;-71
2022/04/09 08:32:04;;;;;;;2.25;0.98;;;;;;;;;;5051326;28;20485;-72
2022/04/09 08:34:35;;;;;;;4.78;1.38;;;;;;;;;;5043815;28;20053;-71
2022/04/09 08:37:02;;;;;;;3.53;1.00;;;;;;;;;;5031657;28;20084;-71
2022/04/09 08:39:29;;;;;;;4.22;0.88;;;;;;;;;;5051489;28;20088;-71
2022/04/09 08:41:55;;;;;;;2.90;0.80;;;;;;;;;;5050068;28;20583;-70
2022/04/09 08:44:22;;;;;;;2.70;1.33;;;;;;;;;;5030755;28;20441;-71
2022/04/09 08:46:48;;;;;;;3.37;1.00;;;;;;;;;;5031093;28;20274;-71
2022/04/09 08:49:20;;;;;;;3.03;1.05;;;;;;;;;;5030823;28;20041;-71
2022/04/09 08:51:47;;;;;;;2.33;0.80;;;;;;;;;;5030321;28;20049;-71
2022/04/09 08:54:15;;;;;;;3.40;0.90;;;;;;;;;;5029653;28;20084;-71
2022/04/09 08:56:41;;;;;;;4.60;1.10;;;;;;;;;;5034981;28;20128;-71
2022/04/09 08:59:07;;;;;;;2.37;0.70;;;;;;;;;;5040336;28;20123;-79
2022/04/09 09:01:34;;;;;;;3.63;1.07;;;;;;;;;;5046221;28;20135;-79
2022/04/09 09:04:01;;;;;;;2.42;0.80;;;;;;;;;;5051040;28;20045;-79
2022/04/09 09:06:31;;;;;;;4.32;0.80;;;;;;;;;;5049579;28;20451;-70
2022/04/09 09:09:03;;;;;;;2.75;0.90;;;;;;;;;;5050775;28;20081;-71
2022/04/09 09:11:30;;;;;;;3.45;1.23;;;;;;;;;;5050597;28;20084;-70
2022/04/09 09:13:57;;;;;;;3.28;0.90;;;;;;;;;;5050488;28;20520;-70
2022/04/09 09:16:23;;;;;;;;;;;;;;;;;;5051376;28;20487;-70
2022/04/09 09:18:51;;;;;;;2.38;0.77;;;;;;;;;;5043056;28;19968;-71
2022/04/09 09:21:20;;;;;;;3.53;1.02;;;;;;;;;;5039194;28;20081;-70
2022/04/09 09:23:47;;;;;;;4.20;0.95;;;;;;;;;;5028094;28;20076;-70
2022/04/09 09:26:18;;;;;;;5.27;1.10;;;;;;;;;;5034272;28;20537;-70
2022/04/09 09:28:53;;;;;;;3.97;1.30;;;;;;;;;;5034927;28;20041;-70
2022/04/09 09:31:19;;;;;;;3.83;0.90;;;;;;;;;;5051551;28;20041;-70
2022/04/09 09:33:49;;;;;;;4.80;1.40;;;;;;;;;;5049927;28;20437;-70
2022/04/09 09:36:32;;;;;;;4.55;0.88;;;;;;;;;;5050650;28;20084;-72
2022/04/09 09:39:06;;;;;;;3.80;1.15;;;;;;;;;;5051518;28;20041;-71
2022/04/09 09:41:32;;;;;;;2.63;1.00;;;;;;;;;;5051063;28;20060;-70
2022/04/09 09:44:00;;;;;;;4.30;0.90;;;;;;;;;;5051493;28;20049;-71
2022/04/09 09:46:26;;;;;;;6.63;2.20;;;;;;;;;;5051286;28;20489;-71
2022/04/09 09:48:53;;;;;;;5.17;2.27;;;;;;;;;;5051422;28;20128;-72
2022/04/09 09:51:22;;;;;;;3.17;1.33;;;;;;;;;;5051271;28;20110;-70
2022/04/09 09:53:48;;;;;;;5.72;1.05;;;;;;;;;;5049748;28;20053;-69
2022/04/09 09:56:31;;;;;;;3.22;1.08;;;;;;;;;;5051522;28;20466;-74
2022/04/09 09:58:59;;;;;;;2.83;0.65;;;;;;;;;;5051259;28;20085;-70
2022/04/09 10:01:26;;;;;;;3.67;1.40;;;;;;;;;;5051247;28;20879;-71
2022/04/09 10:03:54;;;;;;;7.15;1.80;;;;;;;;;;5054249;28;20087;-70
2022/04/09 10:06:21;;;;;;;1.98;0.80;;;;;;;;;;5055270;28;20115;-71
2022/04/09 10:08:47;;;;;;;2.65;1.02;;;;;;;;;;5046309;28;20088;-71
2022/04/09 10:11:19;;;;;;;4.53;1.10;;;;;;;;;;5034847;28;20120;-71
2022/04/09 10:13:47;;;;;;;5.70;2.53;;;;;;;;;;5047822;28;20556;-71
2022/04/09 10:16:18;;;;;;;5.20;1.80;;;;;;;;;;5055352;28;20045;-70
2022/04/09 10:18:47;;;;;;;3.58;0.80;;;;;;;;;;5052744;28;20056;-68
2022/04/09 10:21:14;;;;;;;1.63;0.57;;;;;;;;;;5042823;28;20447;-70
2022/04/09 10:23:40;;;;;;;;;;;;;;;;;;5055256;28;20044;-71
2022/04/09 10:26:07;;;;;;;4.18;0.93;;;;;;;;;;5038599;28;19925;-71
2022/04/09 10:28:36;;;;;;;2.45;1.23;;;;;;;;;;5043041;28;20076;-69
2022/04/09 10:31:23;;;;;;;2.45;1.10;;;;;;;;;;5054645;28;20053;-72
2022/04/09 10:33:55;;;;;;;4.10;1.27;;;;;;;;;;5053984;28;20052;-68
2022/04/09 10:36:40;;;;;;;3.30;1.00;;;;;;;;;;5054990;28;20138;-75
2022/04/09 10:39:20;;;;;;;3.60;0.85;;;;;;;;;;5054624;28;20041;-75
2022/04/09 10:41:47;;;;;;;4.65;1.30;;;;;;;;;;5044513;28;20089;-74
2022/04/09 10:44:50;;;;;;;1.67;1.00;;;;;;;;;;5034110;28;20089;-71
2022/04/09 10:47:18;;;;;;;2.38;1.30;;;;;;;;;;5035269;28;20045;-72
2022/04/09 10:50:02;;;;;;;2.47;1.73;;;;;;;;;;5035440;28;20485;-72
2022/04/09 10:52:30;;;;;;;3.83;0.90;;;;;;;;;;5033874;28;20442;-72
2022/04/09 10:55:12;;;;;;;2.35;0.95;;;;;;;;;;5041841;28;20045;-72
2022/04/09 10:57:42;;;;;;;3.20;1.88;;;;;;;;;;5048355;28;20072;-72
2022/04/09 11:00:22;;;;;;;4.35;1.10;;;;;;;;;;5042049;28;20381;-71
2022/04/09 11:03:03;;;;;;;2.75;1.35;;;;;;;;;;5039770;28;20136;-74
2022/04/09 11:05:30;;;;;;;3.17;1.05;;;;;;;;;;5052835;28;20571;-73
2022/04/09 11:08:09;;;;;;;6.27;3.37;;;;;;;;;;5053301;28;20085;-74
2022/04/09 11:10:36;;;;;;;8.77;5.55;;;;;;;;;;5052542;28;20274;-71
2022/04/09 11:13:03;;;;;;;3.85;2.03;;;;;;;;;;5054046;28;20083;-71
2022/04/09 11:15:29;;;;;;;;;;;;;;;;;;5040212;28;20053;-71
2022/04/09 11:18:00;;;;;;;1.53;0.70;;;;;;;;;;5050199;28;20285;-72
2022/04/09 11:20:31;;;;;;;2.55;0.93;;;;;;;;;;5048475;28;20374;-72
2022/04/09 11:23:06;;;;;;;4.78;2.47;;;;;;;;;;5052577;28;20049;-75
2022/04/09 11:25:32;;;;;;;10.63;8.25;;;;;;;;;;5052643;28;20218;-73
2022/04/09 11:28:19;;;;;;;3.47;1.40;;;;;;;;;;5054067;28;20128;-73
2022/04/09 11:30:57;;;;;;;7.32;5.53;;;;;;;;;;5038517;28;20073;-72
2022/04/09 11:33:24;;;;;;;4.97;2.97;;;;;;;;;;5035597;28;20374;-72
2022/04/09 11:35:51;;;;;;;8.73;5.85;;;;;;;;;;5053734;28;20095;-71
2022/04/09 11:38:17;;;;;;;;;;;;;;;;;;5053925;28;20451;-72
2022/04/09 11:40:47;;;;;;;13.00;10.32;;;;;;;;;;5053436;28;20396;-71
2022/04/09 11:43:14;;;;;;;8.35;7.18;;;;;;;;;;5053647;28;20099;-71
2022/04/09 11:45:41;;;;;;;5.80;2.78;;;;;;;;;;5053595;28;20096;-71
2022/04/09 11:48:13;;;;;;;6.88;4.63;;;;;;;;;;5053311;28;20056;-71
2022/04/09 11:50:39;;;;;;;4.50;2.60;;;;;;;;;;5053397;28;20167;-71
2022/04/09 11:53:10;;;;;;;9.48;6.43;;;;;;;;;;5053108;28;20489;-71
2022/04/09 11:55:37;;;;;;;7.03;4.15;;;;;;;;;;5053085;28;20075;-71
2022/04/09 11:58:04;;;;;;;5.65;3.85;;;;;;;;;;5053465;28;20084;-72
2022/04/09 12:00:34;;;;;;;6.45;4.28;;;;;;;;;;5052959;28;20092;-72
2022/04/09 12:03:01;;;;;;;7.38;4.53;;;;;;;;;;5052958;28;20540;-72
2022/04/09 12:05:33;;;;;;;3.00;2.00;;;;;;;;;;5052892;28;20462;-71
2022/04/09 12:07:59;;;;;;;2.70;1.63;;;;;;;;;;5052978;28;20075;-71
2022/04/09 12:10:27;;;;;;;2.90;1.60;;;;;;;;;;5053225;28;20076;-72
2022/04/09 12:12:57;;;;;;;8.90;5.57;;;;;;;;;;5053038;28;20074;-71
2022/04/09 12:15:28;;;;;;;2.85;1.40;;;;;;;;;;5053062;28;20098;-73
2022/04/09 12:17:55;;;;;;;3.28;1.52;;;;;;;;;;5051543;28;20089;-72
2022/04/09 12:20:21;;;;;;;;;;;;;;;;;;5053150;28;20497;-70
2022/04/09 12:22:47;;;;;;;;;;;;;;;;;;5053090;28;19924;-71
2022/04/09 12:25:14;;;;;;;6.32;2.72;;;;;;;;;;5044123;28;19964;-72
2022/04/09 12:27:44;;;;;;;4.55;1.90;;;;;;;;;;5030863;28;20053;-71
2022/04/09 12:30:12;;;;;;;5.20;1.20;;;;;;;;;;5047661;28;20057;-71
2022/04/09 12:32:41;;;;;;;5.18;1.92;;;;;;;;;;5052771;28;20094;-71
2022/04/09 12:35:08;;;;;;;6.25;3.08;;;;;;;;;;5052580;28;20115;-69
2022/04/09 12:37:44;;;;;;;4.47;2.20;;;;;;;;;;5039850;28;20085;-70
2022/04/09 12:40:11;;;;;;;;;;;;;;;;;;5031838;28;20131;-73
2022/04/09 12:42:37;;;;;;;4.35;1.60;;;;;;;;;;5048308;28;19971;-70
2022/04/09 12:45:11;;;;;;;5.13;1.90;;;;;;;;;;5052629;28;20444;-70
2022/04/09 12:47:37;;;;;;;4.13;1.60;;;;;;;;;;5038892;28;20077;-70
2022/04/09 12:50:04;;;;;;;2.53;1.30;;;;;;;;;;5031806;28;20081;-71
2022/04/09 12:52:31;;;;;;;2.42;0.98;;;;;;;;;;5047482;28;20128;-70
2022/04/09 12:54:58;;;;;;;2.55;0.85;;;;;;;;;;5052189;28;20107;-69
2022/04/09 12:57:24;;;;;;;1.80;0.80;;;;;;;;;;5052397;28;20052;-69
2022/04/09 12:59:51;;;;;;;2.80;1.13;;;;;;;;;;5051937;28;20099;-69
2022/04/09 13:02:17;;;;;;;2.47;0.98;;;;;;;;;;5051968;28;20099;-69
2022/04/09 13:04:44;;;;;;;3.28;1.02;;;;;;;;;;5052090;28;20049;-69
2022/04/09 13:07:11;;;;;;;2.05;1.05;;;;;;;;;;5051870;28;20099;-69
2022/04/09 13:09:37;;;;;;;2.63;1.00;;;;;;;;;;5052137;28;20041;-69
2022/04/09 13:12:04;;;;;;;2.13;1.00;;;;;;;;;;5051526;28;20080;-69
2022/04/09 13:14:30;;;;;;;2.45;1.30;;;;;;;;;;5051916;28;20103;-69
2022/04/09 13:17:00;;;;;;;3.70;1.33;;;;;;;;;;5052206;28;20045;-69
2022/04/09 13:19:29;;;;;;;4.10;1.35;;;;;;;;;;5052062;28;20124;-71
2022/04/09 13:21:55;;;;;;;2.25;1.20;;;;;;;;;;5051591;28;20497;-71
2022/04/09 13:24:22;;;;;;;2.15;1.38;;;;;;;;;;5052020;28;20477;-69
2022/04/09 13:26:48;;;;;;;2.85;1.00;;;;;;;;;;5050294;28;20132;-69
2022/04/09 13:29:14;;;;;;;1.88;0.68;;;;;;;;;;5051757;28;20087;-69
2022/04/09 13:31:41;;;;;;;2.90;0.80;;;;;;;;;;5051521;28;20048;-69
2022/04/09 13:34:11;;;;;;;2.45;1.00;;;;;;;;;;5050343;28;20512;-69
2022/04/09 13:36:38;;;;;;;3.08;1.13;;;;;;;;;;5050453;28;20053;-69
2022/04/09 13:39:04;;;;;;;2.28;1.20;;;;;;;;;;5051631;28;20049;-69
2022/04/09 13:41:51;;;;;;;4.10;0.80;;;;;;;;;;5051164;28;20067;-69
2022/04/09 13:44:18;;;;;;;3.55;0.90;;;;;;;;;;5051566;28;20045;-69
2022/04/09 13:46:45;;;;;;;6.10;1.83;;;;;;;;;;5051739;28;20080;-69
2022/04/09 13:49:11;;;;;;;4.95;1.73;;;;;;;;;;5051589;28;20037;-69
2022/04/09 13:51:38;;;;;;;2.88;1.00;;;;;;;;;;5051459;28;20080;-69
2022/04/09 13:54:04;;;;;;;2.60;0.98;;;;;;;;;;5051356;28;20187;-69
2022/04/09 13:56:31;;;;;;;2.90;1.33;;;;;;;;;;5050244;28;20136;-69
2022/04/09 13:59:00;;;;;;;3.85;1.80;;;;;;;;;;5037519;28;20152;-69
2022/04/09 14:01:27;;;;;;;2.47;0.90;;;;;;;;;;5051819;28;20095;-69
2022/04/09 14:03:53;;;;;;;3.65;1.90;;;;;;;;;;5051595;28;20049;-69
2022/04/09 14:06:23;;;;;;;2.60;0.98;;;;;;;;;;5051520;28;20049;-69
2022/04/09 14:08:49;;;;;;;3.60;0.77;;;;;;;;;;5051242;28;20559;-69
2022/04/09 14:11:16;;;;;;;1.65;0.75;;;;;;;;;;5051533;28;20045;-69
2022/04/09 14:13:42;;;;;;;5.60;3.05;;;;;;;;;;5051566;28;20073;-69
2022/04/09 14:16:09;;;;;;;2.47;1.10;;;;;;;;;;5051114;28;20122;-69
2022/04/09 14:18:35;;;;;;;2.40;1.20;;;;;;;;;;5051506;28;20053;-69
2022/04/09 14:21:02;;;;;;;4.07;1.80;;;;;;;;;;5051418;28;20115;-69
2022/04/09 14:23:28;;;;;;;2.40;1.02;;;;;;;;;;5051570;28;20401;-69
2022/04/09 14:25:55;;;;;;;6.60;1.92;;;;;;;;;;5049881;28;20072;-69
2022/04/09 14:28:26;;;;;;;2.67;0.95;;;;;;;;;;5051118;28;20053;-69
2022/04/09 14:30:53;;;;;;;2.38;0.82;;;;;;;;;;5050978;28;20413;-69
2022/04/09 14:33:21;;;;;;;2.25;0.73;;;;;;;;;;5050083;28;20099;-69
2022/04/09 14:35:50;;;;;;;1.88;0.65;;;;;;;;;;5050972;28;20489;-70
2022/04/09 14:38:18;;;;;;;5.18;1.70;;;;;;;;;;5050932;28;20500;-69
2022/04/09 14:40:44;;;;;;;;;;;;;;;;;;5051309;28;20092;-70
2022/04/09 14:43:11;;;;;;;4.38;0.80;;;;;;;;;;5051143;28;19955;-69
2022/04/09 14:45:37;;;;;;;7.43;1.50;;;;;;;;;;5050779;28;20619;-70
2022/04/09 14:48:04;;;;;;;2.88;1.00;;;;;;;;;;5050854;28;20132;-69
2022/04/09 14:50:31;;;;;;;2.90;1.05;;;;;;;;;;5053250;28;20056;-70